Aztec, NM (87410)

11:39 AM MDT on August 22, 2014 (GMT -0600)
Aztec, NM 87410 | Change Station
CLOSE
Current Station
Personal Weather Station
Location: Aztec, NM
Elevation: 5682 ft
Nearby Weather Stations

Elev 5682 ft 36.82 °N, 107.99 °W | Updated 14 seconds ago

Clear
Clear
71.4 °F
Feels Like 77 °F
N
2.7
Wind Variable Wind from ENE

Today
High -- | Low -- °F
--% Chance of Precip.
Yesterday
High -- | Low -- °F
Precip. -- in
6:34 AM 7:54 PM
Waning Crescent, 7% visible
Pressure 30.04 in
Visibility 10.0 miles
Clouds Clear
Heat Index 77 °F
Dew Point 51 °F
Humidity 49%
Rainfall 0.00 in
Snow Depth Not available.
UV 8 out of 12
Pollen 7.40 out of 12
Air Quality Not available.
Flu Activity Not available.
METAR KFMN 221653Z 10005KT 10SM CLR 18/12 A3021 RMK AO2 SLP173 T01830122

More Conditions Fewer Conditions

Pressure 30.04 in
Visibility 10.0 miles
Clouds Clear
Heat Index 77 °F
Dew Point 51 °F
Humidity 49%
Rainfall 0.00 in
Snow Depth Not available.
UV 8 out of 12
Pollen 7.40 out of 12
Air Quality Not available.
Flu Activity Not available.
METAR KFMN 221653Z 10005KT 10SM CLR 18/12 A3021 RMK AO2 SLP173 T01830122

More Conditions Fewer Conditions

10-Day Weather Forecast

Almanac

Astronomy

Aug. 22, 2014 Rise Set
Actual Time 6:34 AM MDT 7:54 PM MDT
Civil Twilight 6:07 AM MDT 8:21 PM MDT
Nautical Twilight 5:35 AM MDT 8:53 PM MDT
Astronomical Twilight 5:01 AM MDT 9:27 PM MDT
Moon 4:02 AM MDT 6:03 PM MDT
Length of Visible Light 14h 13m
Length of Day
13h 19m
Tomorrow will be 2m 10s shorter.
Waning Crescent, 7% of the Moon is Illuminated
Today
Waning Crescent
Aug 25
New
Sep 2
First Quarter
Sep 8
Full
Sep 15
Last Quarter

Today's Extremes

State Highs State Lows

Community

WunderPhotos

Upload Photos

1,746,205 photos uploaded!

WunderBlogs® & News

Nearby

Snow Depth

Station Depth Elevation
Chamita 0 in 8400 ft
Senorita Divide #2 0 in 8600 ft
Bateman 0 in 9300 ft
Hopewell 0 in 10000 ft
Quemazon 1 in 9500 ft

Earthquake Activity

City Distance Mag. Time & Date
No recent earthquake activity has been reported nearby.
Minimum magnitude displayed is 2.5.

Coastal Water Temperatures

Place Temperature
No Stations Reporting

Nearby Weather Stations